Time;durP1;ratioP1;P1;durP2;ratioP2;P2;SDS_P1;SDS_P2;PMS_P1;PMS_P2;Temp;Humidity;BMP_temperature;BMP_pressure;BME280_temperature;BME280_humidity;BME280_pressure;Samples;Min_cycle;Max_cycle;Signal;HPM_P1;HPM_P2
2022/01/28 00:04:54;;;;;;;18.33;2.70;;;;;;;4.09;100.00;102825.59;10456950;28;20052;-59
2022/01/28 00:09:56;;;;;;;24.73;4.25;;;;;;;3.96;100.00;102826.44;10457908;28;20416;-57
2022/01/28 00:15:12;;;;;;;23.42;3.53;;;;;;;3.97;100.00;102835.06;10457746;28;20481;-57
2022/01/28 00:41:30;;;;;;;14.27;3.10;;;;;;;3.71;100.00;102847.06;10457195;28;20045;-59
2022/01/28 00:46:33;;;;;;;13.25;3.08;;;;;;;3.65;100.00;102856.56;10456593;28;20049;-58
2022/01/28 00:51:35;;;;;;;23.38;3.28;;;;;;;3.55;100.00;102858.25;10456355;28;20439;-58
2022/01/28 00:56:37;;;;;;;20.25;3.17;;;;;;;3.70;100.00;102862.63;10455391;28;20049;-60
2022/01/28 01:01:40;;;;;;;18.05;2.75;;;;;;;3.61;100.00;102870.34;10456242;28;20409;-53
2022/01/28 01:06:42;;;;;;;26.02;4.50;;;;;;;3.74;100.00;102866.97;10455844;28;20404;-59
2022/01/28 01:11:45;;;;;;;18.70;3.17;;;;;;;3.54;100.00;102872.91;10455692;28;20487;-57
2022/01/28 01:17:19;;;;;;;15.80;3.50;;;;;;;3.53;100.00;102871.19;10456470;28;20420;-59
2022/01/28 01:22:22;;;;;;;28.67;3.97;;;;;;;3.65;100.00;102885.91;10456267;28;20401;-58
2022/01/28 01:27:24;;;;;;;24.00;4.25;;;;;;;3.67;100.00;102891.13;10456342;28;20087;-55
2022/01/28 01:32:27;;;;;;;23.15;3.63;;;;;;;3.62;100.00;102916.13;10455866;28;20045;-57
2022/01/28 01:37:29;;;;;;;22.67;3.75;;;;;;;3.66;100.00;102905.78;10456199;28;20527;-55
2022/01/28 01:52:55;;;;;;;21.02;3.78;;;;;;;3.64;100.00;102936.00;10455763;28;20044;-59
2022/01/28 01:57:57;;;;;;;15.35;3.22;;;;;;;3.76;100.00;102942.97;10457093;28;20056;-58
2022/01/28 02:03:00;;;;;;;15.73;2.92;;;;;;;3.77;100.00;102957.66;10462273;28;20056;-57
2022/01/28 02:08:06;;;;;;;24.25;4.55;;;;;;;3.78;100.00;102959.38;10463421;28;20056;-58
2022/01/28 02:13:08;;;;;;;38.17;5.30;;;;;;;3.65;100.00;102968.81;10461473;28;20490;-59
2022/01/28 02:18:11;;;;;;;19.20;2.92;;;;;;;3.58;100.00;102967.06;10462394;28;20382;-59
2022/01/28 02:23:13;;;;;;;21.35;3.53;;;;;;;3.60;100.00;102974.81;10462945;28;20061;-56
2022/01/28 02:28:19;;;;;;;26.83;4.45;;;;;;;3.64;100.00;102972.25;10461312;28;20432;-56
2022/01/28 02:33:24;;;;;;;35.80;4.95;;;;;;;3.52;100.00;102972.19;10461416;28;20052;-59
2022/01/28 02:38:28;;;;;;;21.80;3.58;;;;;;;3.49;100.00;102979.94;10461938;28;20061;-56
2022/01/28 02:43:55;;;;;;;19.85;3.10;;;;;;;3.41;100.00;102977.28;10461504;28;20052;-59
2022/01/28 02:49:05;;;;;;;23.13;2.97;;;;;;;3.50;100.00;102989.44;10460907;28;20048;-57
2022/01/28 02:54:16;;;;;;;21.92;4.10;;;;;;;3.60;100.00;102991.25;10461199;28;20077;-58
2022/01/28 02:59:19;;;;;;;12.67;3.10;;;;;;;3.74;100.00;102988.72;10460911;28;20511;-58
2022/01/28 03:10:02;;;;;;;16.38;3.08;;;;;;;3.71;100.00;102983.53;10460311;28;20045;-58
2022/01/28 03:15:07;;;;;;;;;;;;;;;3.62;100.00;103004.22;10461283;28;20049;-57
2022/01/28 03:25:21;;;;;;;20.65;4.68;;;;;;;3.63;100.00;103012.00;10459868;28;20045;-59
2022/01/28 03:30:23;;;;;;;16.23;2.63;;;;;;;3.62;100.00;103011.97;10462610;28;20053;-57
2022/01/28 03:35:26;;;;;;;18.40;3.00;;;;;;;3.62;100.00;103027.53;10459455;28;20060;-56
2022/01/28 03:40:34;;;;;;;17.67;3.85;;;;;;;3.46;100.00;103008.41;10459443;28;20056;-57
2022/01/28 03:45:37;;;;;;;19.98;3.33;;;;;;;3.43;100.00;103017.03;10442071;28;20055;-59
2022/01/28 03:50:39;;;;;;;11.82;2.88;;;;;;;3.58;100.00;103012.78;10459360;28;20067;-57
2022/01/28 03:55:41;;;;;;;18.48;2.65;;;;;;;3.54;100.00;103017.09;10457233;28;20049;-57
2022/01/28 04:00:44;;;;;;;20.45;2.75;;;;;;;3.39;100.00;103033.38;10459162;28;20053;-58
2022/01/28 04:21:24;;;;;;;33.33;3.45;;;;;;;3.51;100.00;103049.03;10457367;28;20056;-57
2022/01/28 04:26:26;;;;;;;23.50;3.40;;;;;;;3.51;100.00;103045.56;10457478;28;20045;-59
2022/01/28 04:31:28;;;;;;;16.55;2.35;;;;;;;3.72;100.00;103052.63;10457449;28;20056;-59
2022/01/28 04:36:36;;;;;;;24.15;4.13;;;;;;;3.60;100.00;103063.78;10458216;28;20080;-60
2022/01/28 04:42:10;;;;;;;20.08;3.00;;;;;;;3.57;100.00;103062.88;10457376;28;20052;-57
2022/01/28 04:47:12;;;;;;;15.63;2.65;;;;;;;3.75;100.00;103062.16;10455498;28;20049;-58
2022/01/28 04:58:03;;;;;;;20.80;2.90;;;;;;;3.54;100.00;103080.13;10456536;28;20493;-59
2022/01/28 05:03:25;;;;;;;17.80;2.92;;;;;;;3.53;100.00;103093.06;10456078;28;20520;-57
2022/01/28 05:09:01;;;;;;;14.85;2.60;;;;;;;3.46;100.00;103099.03;10456666;28;20045;-56
2022/01/28 05:30:03;;;;;;;17.30;2.88;;;;;;;3.12;100.00;103120.28;10455351;28;20049;-58
2022/01/28 05:35:06;;;;;;;16.02;2.80;;;;;;;2.98;100.00;103133.06;10460109;28;20049;-57
2022/01/28 05:40:09;;;;;;;16.73;2.42;;;;;;;3.12;100.00;103130.63;10463850;28;20489;-58
2022/01/28 05:45:12;;;;;;;19.20;2.75;;;;;;;3.03;100.00;103148.66;10463352;28;20076;-57
2022/01/28 05:50:14;;;;;;;13.88;3.13;;;;;;;3.10;100.00;103162.53;10463363;28;20057;-56
2022/01/28 05:55:16;;;;;;;22.25;2.70;;;;;;;3.12;100.00;103160.84;10461768;28;20509;-58
2022/01/28 06:00:19;;;;;;;12.25;2.15;;;;;;;3.14;100.00;103164.31;10462973;28;20405;-56
2022/01/28 06:05:21;;;;;;;11.23;2.63;;;;;;;3.24;100.00;103173.06;10462791;28;20056;-54
2022/01/28 06:10:24;;;;;;;17.20;3.20;;;;;;;3.21;100.00;103184.25;10461513;28;20060;-54
2022/01/28 06:15:26;;;;;;;15.52;3.55;;;;;;;3.16;100.00;103197.13;10461633;28;20053;-56
2022/01/28 06:20:29;;;;;;;15.52;2.88;;;;;;;3.29;100.00;103205.03;10461202;28;20052;-55
2022/01/28 06:25:31;;;;;;;19.70;4.03;;;;;;;3.42;100.00;103214.69;10462346;28;20049;-55
2022/01/28 06:30:34;;;;;;;29.23;3.55;;;;;;;3.58;100.00;103222.63;10460928;28;20531;-56
2022/01/28 06:35:36;;;;;;;21.52;3.33;;;;;;;3.58;100.00;103236.47;10461758;28;20392;-58
2022/01/28 06:40:39;;;;;;;18.58;2.67;;;;;;;3.50;100.00;103238.97;10461733;28;20048;-56
2022/01/28 06:45:43;;;;;;;21.02;3.67;;;;;;;3.57;100.00;103250.25;10460036;28;20045;-57
2022/01/28 06:50:46;;;;;;;22.90;3.30;;;;;;;3.70;100.00;103249.53;10461250;28;20048;-56
2022/01/28 06:55:48;;;;;;;16.58;3.30;;;;;;;3.71;100.00;103261.63;10461541;28;20049;-59
2022/01/28 07:00:51;;;;;;;25.60;3.17;;;;;;;3.78;100.00;103280.69;10461002;28;20052;-55
2022/01/28 07:05:53;;;;;;;20.85;3.38;;;;;;;3.89;100.00;103275.66;10460750;28;20103;-57
2022/01/28 07:10:56;;;;;;;17.45;3.42;;;;;;;3.83;100.00;103296.31;10461059;28;20056;-58
2022/01/28 07:15:58;;;;;;;17.58;4.25;;;;;;;3.84;100.00;103298.06;10460242;28;20060;-53
2022/01/28 07:21:01;;;;;;;23.05;3.88;;;;;;;3.63;100.00;103301.25;10459945;28;20067;-58
2022/01/28 07:26:03;;;;;;;22.95;2.38;;;;;;;3.49;100.00;103298.50;10458601;28;20489;-57
2022/01/28 07:31:08;;;;;;;17.52;3.03;;;;;;;3.41;100.00;103306.19;10459489;28;20045;-57
2022/01/28 07:36:10;;;;;;;19.05;2.80;;;;;;;3.31;100.00;103318.16;10458246;28;20558;-57
2022/01/28 07:41:13;;;;;;;22.05;3.45;;;;;;;3.24;100.00;103315.44;10459283;28;20049;-57
2022/01/28 07:46:15;;;;;;;21.25;3.83;;;;;;;3.62;100.00;103318.53;10457734;28;20481;-57
2022/01/28 07:51:18;;;;;;;22.30;3.03;;;;;;;3.69;100.00;103322.06;10459089;28;20055;-56
2022/01/28 07:56:22;;;;;;;16.20;2.45;;;;;;;3.79;100.00;103328.25;10440379;28;20055;-56
2022/01/28 08:01:24;;;;;;;15.13;2.47;;;;;;;3.82;100.00;103333.47;10458808;28;20064;-58
2022/01/28 08:06:28;;;;;;;23.02;2.80;;;;;;;3.82;100.00;103339.50;10458063;28;20059;-57
2022/01/28 08:11:31;;;;;;;14.00;3.28;;;;;;;3.93;100.00;103354.31;10458553;28;20584;-56
2022/01/28 08:16:35;;;;;;;19.13;2.50;;;;;;;4.02;100.00;103344.91;10458062;28;20059;-56
2022/01/28 08:21:37;;;;;;;19.95;2.45;;;;;;;4.03;100.00;103357.00;10457430;28;20127;-58
2022/01/28 08:26:40;;;;;;;19.10;2.95;;;;;;;4.07;100.00;103363.97;10456289;28;20071;-57
2022/01/28 08:31:42;;;;;;;32.10;3.28;;;;;;;4.06;100.00;103361.38;10457303;28;20052;-59
2022/01/28 08:36:44;;;;;;;20.05;2.88;;;;;;;3.87;100.00;103365.47;10456373;28;20088;-58
2022/01/28 08:41:47;;;;;;;20.27;4.28;;;;;;;6.21;100.00;103367.13;10478435;28;20045;-57
2022/01/28 08:46:50;;;;;;;21.85;2.55;;;;;;;7.70;89.92;103373.03;10457320;28;20052;-58
2022/01/28 08:51:52;;;;;;;15.57;3.05;;;;;;;7.85;82.90;103362.56;10456983;28;20052;-58
2022/01/28 08:56:55;;;;;;;11.68;2.40;;;;;;;8.46;82.62;103376.13;10457399;28;20061;-59
2022/01/28 09:02:10;;;;;;;19.25;3.80;;;;;;;8.44;82.92;103357.88;10456825;28;20048;-60
2022/01/28 09:07:13;;;;;;;14.57;2.28;;;;;;;7.02;86.60;103368.88;10456783;28;20051;-56
2022/01/28 09:17:30;;;;;;;15.88;2.70;;;;;;;11.33;73.18;103384.59;10492133;28;20033;-58
2022/01/28 09:22:32;;;;;;;12.93;2.80;;;;;;;10.96;71.04;103380.03;10470760;28;20052;-60
2022/01/28 09:27:34;;;;;;;10.70;2.78;;;;;;;11.04;70.57;103384.25;10470081;28;20049;-58
2022/01/28 09:32:37;;;;;;;17.13;3.47;;;;;;;10.09;67.16;103392.72;10469834;28;20049;-59
2022/01/28 09:37:39;;;;;;;14.77;3.22;;;;;;;11.50;66.69;103388.63;10469401;28;20053;-58
2022/01/28 09:42:44;;;;;;;13.77;2.85;;;;;;;12.97;64.11;103389.66;10470374;28;20053;-59
2022/01/28 09:47:47;;;;;;;13.65;2.88;;;;;;;13.43;67.58;103395.47;10469531;28;20397;-60
2022/01/28 09:52:50;;;;;;;20.85;3.60;;;;;;;13.45;62.27;103401.56;10470081;28;20127;-60
2022/01/28 09:57:55;;;;;;;15.73;3.33;;;;;;;14.60;61.67;103415.66;10489956;28;20072;-60
2022/01/28 10:03:03;;;;;;;15.60;2.95;;;;;;;15.28;60.37;103404.56;10468379;28;20052;-60
2022/01/28 10:08:07;;;;;;;11.38;2.75;;;;;;;16.00;57.77;103406.31;10469551;28;20086;-59
2022/01/28 10:13:16;;;;;;;22.38;3.92;;;;;;;14.93;59.88;103407.53;10469283;28;20053;-59
2022/01/28 10:18:19;;;;;;;18.98;4.07;;;;;;;14.23;54.31;103422.06;10469644;28;20055;-61
2022/01/28 10:23:22;;;;;;;12.45;3.35;;;;;;;16.62;56.28;103410.00;10462840;28;20053;-59
2022/01/28 10:28:24;;;;;;;14.35;5.00;;;;;;;17.21;55.51;103413.69;10444427;28;20509;-60
2022/01/28 10:33:27;;;;;;;14.20;3.22;;;;;;;13.87;56.07;103405.59;10461758;28;20405;-59
2022/01/28 10:38:42;;;;;;;16.00;3.75;;;;;;;9.78;68.51;103421.03;10480446;28;20055;-59
2022/01/28 10:43:55;;;;;;;15.13;2.67;;;;;;;9.80;69.90;103430.59;10462218;28;20049;-60
2022/01/28 10:49:00;;;;;;;21.15;4.05;;;;;;;9.63;70.57;103438.66;10461161;28;20075;-59
2022/01/28 10:54:03;;;;;;;21.83;3.15;;;;;;;9.73;71.05;103425.44;10461560;28;20053;-59
2022/01/28 10:59:05;;;;;;;17.60;3.90;;;;;;;9.16;75.38;103418.22;10461162;28;20056;-62
2022/01/28 11:04:09;;;;;;;17.83;3.45;;;;;;;8.41;77.00;103422.28;10460577;28;20481;-60
2022/01/28 11:09:14;;;;;;;10.77;3.22;;;;;;;8.59;76.69;103416.97;10460698;28;20055;-58
2022/01/28 11:14:20;;;;;;;14.85;3.10;;;;;;;7.88;76.16;103406.88;10461007;28;20049;-60
2022/01/28 11:19:23;;;;;;;20.50;4.38;;;;;;;8.86;75.73;103394.97;10479719;28;20505;-60
2022/01/28 11:24:38;;;;;;;16.15;3.42;;;;;;;9.96;75.02;103384.16;10460124;28;20539;-59
2022/01/28 11:29:41;;;;;;;13.52;2.83;;;;;;;10.94;68.99;103383.53;10460384;28;20045;-60
2022/01/28 11:35:02;;;;;;;9.65;2.75;;;;;;;13.39;61.84;103385.94;10441480;28;20057;-60
2022/01/28 11:40:11;;;;;;;11.13;2.30;;;;;;;11.02;64.92;103365.06;10459692;28;20061;-59
2022/01/28 11:45:14;;;;;;;14.68;2.85;;;;;;;9.64;71.22;103363.66;10459293;28;20527;-59
2022/01/28 11:50:18;;;;;;;8.13;2.78;;;;;;;9.49;73.79;103349.00;10459209;28;20045;-59
2022/01/28 11:55:21;;;;;;;12.65;2.90;;;;;;;9.16;72.78;103364.16;10459278;28;20444;-59
2022/01/28 12:00:28;;;;;;;9.00;2.25;;;;;;;9.45;74.79;103353.41;10481589;28;20049;-60
2022/01/28 12:05:31;;;;;;;18.45;3.20;;;;;;;8.72;74.20;103355.91;10458562;28;20045;-59
2022/01/28 12:10:40;;;;;;;10.65;2.78;;;;;;;9.46;73.29;103352.53;10459762;28;20048;-60
2022/01/28 12:16:00;;;;;;;12.43;2.53;;;;;;;9.09;72.15;103349.44;10457899;28;20551;-59
2022/01/28 12:21:02;;;;;;;19.63;2.65;;;;;;;9.02;72.88;103343.41;10457050;28;20056;-59
2022/01/28 12:26:05;;;;;;;15.52;3.33;;;;;;;9.29;75.31;103339.63;10456084;28;20488;-58
2022/01/28 12:31:25;;;;;;;14.25;2.58;;;;;;;9.40;74.14;103322.97;10457638;28;20055;-59
2022/01/28 12:36:33;;;;;;;16.42;2.80;;;;;;;8.93;75.67;103310.41;10457662;28;20056;-58
2022/01/28 12:41:42;;;;;;;10.85;3.08;;;;;;;8.68;75.98;103309.78;10469666;28;20037;-54
2022/01/28 12:46:57;;;;;;;9.95;3.05;;;;;;;8.63;75.73;103301.13;10462665;28;20060;-59
2022/01/28 12:52:03;;;;;;;15.13;3.33;;;;;;;8.42;76.88;103303.88;10457073;28;20075;-58
2022/01/28 12:57:11;;;;;;;15.52;3.65;;;;;;;7.65;77.66;103302.66;10456832;28;20065;-58
2022/01/28 13:02:15;;;;;;;15.30;2.95;;;;;;;7.58;80.71;103307.06;10457401;28;20041;-58
2022/01/28 13:12:40;;;;;;;18.17;4.18;;;;;;;7.58;82.01;103301.84;10456518;28;20520;-59
2022/01/28 13:17:57;;;;;;;15.25;2.85;;;;;;;7.47;82.44;103287.13;10456892;28;20053;-58
2022/01/28 13:23:00;;;;;;;14.02;2.53;;;;;;;7.38;82.74;103288.88;10478562;28;20131;-58
2022/01/28 13:28:06;;;;;;;12.18;3.60;;;;;;;7.63;81.02;103271.38;10455594;28;20056;-58
2022/01/28 13:33:10;;;;;;;11.82;2.53;;;;;;;7.69;81.45;103261.78;10455034;28;20052;-60
2022/01/28 13:38:17;;;;;;;17.33;3.78;;;;;;;8.20;77.82;103254.47;10455724;28;20110;-57
2022/01/28 13:43:23;;;;;;;14.15;2.50;;;;;;;8.71;77.07;103254.06;10455775;28;20501;-59
2022/01/28 13:48:37;;;;;;;15.07;2.78;;;;;;;9.18;72.67;103259.59;10456087;28;20053;-58
2022/01/28 13:59:14;;;;;;;13.80;2.53;;;;;;;8.53;76.97;103255.94;10463116;28;20115;-59
2022/01/28 14:04:35;;;;;;;14.13;2.60;;;;;;;8.80;73.28;103259.16;10484702;28;20659;-58
2022/01/28 14:09:56;;;;;;;6.28;2.00;;;;;;;8.05;76.29;103267.63;10462981;28;20400;-57
2022/01/28 14:15:10;;;;;;;11.30;3.20;;;;;;;7.51;78.37;103265.38;10462709;28;20044;-59
2022/01/28 14:20:12;;;;;;;17.02;3.35;;;;;;;7.55;79.88;103260.13;10462795;28;20048;-58
2022/01/28 14:25:15;;;;;;;11.88;2.83;;;;;;;8.07;77.41;103264.16;10462193;28;20408;-60
2022/01/28 14:35:20;;;;;;;15.65;3.47;;;;;;;7.54;78.67;103278.38;10461940;28;20053;-59
2022/01/28 14:40:22;;;;;;;6.40;1.73;;;;;;;7.58;81.79;103264.44;10461621;28;20488;-57
2022/01/28 14:45:25;;;;;;;8.35;2.50;;;;;;;7.70;80.34;103269.63;10486400;28;20566;-57
2022/01/28 14:50:28;;;;;;;13.02;2.45;;;;;;;7.72;81.57;103264.41;10463455;28;20459;-59
2022/01/28 14:55:30;;;;;;;11.80;2.65;;;;;;;8.00;81.40;103265.94;10461431;28;20057;-57
2022/01/28 15:00:33;;;;;;;13.18;5.13;;;;;;;8.28;79.47;103272.69;10461183;28;20402;-58
2022/01/28 15:05:36;;;;;;;18.70;3.80;;;;;;;8.38;78.06;103269.13;10461008;28;20083;-58
2022/01/28 15:10:40;;;;;;;22.75;3.50;;;;;;;7.63;78.85;103273.09;10460577;28;20049;-59
2022/01/28 15:15:42;;;;;;;12.25;3.65;;;;;;;7.42;79.24;103271.50;10459799;28;20409;-58
2022/01/28 15:20:45;;;;;;;13.70;3.70;;;;;;;7.62;80.96;103267.03;10459310;28;20088;-56
2022/01/28 15:25:47;;;;;;;10.45;3.88;;;;;;;7.45;82.83;103263.66;10464157;28;20053;-56
2022/01/28 15:36:11;;;;;;;17.63;3.55;;;;;;;7.42;84.23;103242.81;10458767;28;20508;-58
2022/01/28 15:41:14;;;;;;;11.38;5.03;;;;;;;6.95;86.03;103246.50;10459492;28;20484;-59
2022/01/28 15:46:16;;;;;;;17.23;5.50;;;;;;;7.03;84.14;103242.97;10459339;28;20055;-57
2022/01/28 15:51:18;;;;;;;15.32;5.45;;;;;;;6.54;88.01;103239.63;10458887;28;20056;-58
2022/01/28 15:56:21;;;;;;;17.25;5.05;;;;;;;6.36;91.05;103232.72;10459160;28;20057;-55
2022/01/28 16:01:24;;;;;;;13.23;4.80;;;;;;;6.26;95.35;103245.72;10459394;28;20135;-58
2022/01/28 16:06:27;;;;;;;15.10;4.55;;;;;;;6.28;94.63;103230.97;10474111;28;20037;-54
2022/01/28 16:11:33;;;;;;;6.50;3.55;;;;;;;6.28;95.83;103222.28;10464449;28;20053;-58
2022/01/28 16:21:57;;;;;;;16.48;4.95;;;;;;;5.90;99.25;103205.81;10457863;28;20652;-57
2022/01/28 16:27:00;;;;;;;17.63;4.90;;;;;;;5.86;98.62;103203.19;10457791;28;20045;-58
2022/01/28 16:32:03;;;;;;;17.15;5.93;;;;;;;5.89;100.00;103195.41;10440039;28;20045;-59
2022/01/28 16:37:06;;;;;;;10.40;4.35;;;;;;;5.73;100.00;103194.50;10457352;28;20473;-57
2022/01/28 16:42:09;;;;;;;16.55;5.40;;;;;;;5.70;100.00;103207.47;10457288;28;20076;-57
2022/01/28 16:47:14;;;;;;;9.60;4.53;;;;;;;5.46;100.00;103197.91;10455775;28;20049;-58
2022/01/28 16:52:17;;;;;;;15.27;4.28;;;;;;;5.32;100.00;103193.56;10476809;28;20057;-56
2022/01/28 16:57:19;;;;;;;8.43;4.20;;;;;;;5.40;100.00;103178.84;10456752;28;20060;-55
2022/01/28 17:02:22;;;;;;;11.02;4.70;;;;;;;5.14;100.00;103177.91;10456492;28;20405;-55
2022/01/28 17:07:25;;;;;;;11.68;5.18;;;;;;;5.17;100.00;103172.72;10456231;28;20052;-57
2022/01/28 17:12:35;;;;;;;10.50;5.30;;;;;;;5.08;100.00;103172.69;10456445;28;20060;-59
2022/01/28 17:17:39;;;;;;;14.23;5.97;;;;;;;5.36;100.00;103169.34;10455529;28;20448;-57
2022/01/28 17:22:43;;;;;;;12.63;5.57;;;;;;;5.33;100.00;103158.94;10456370;28;20056;-55
2022/01/28 17:27:45;;;;;;;18.70;7.72;;;;;;;5.29;100.00;103169.31;10456036;28;20053;-59
2022/01/28 17:32:49;;;;;;;25.05;14.23;;;;;;;5.85;100.00;103180.63;10462864;28;20110;-59
2022/01/28 17:37:58;;;;;;;30.15;19.60;;;;;;;5.80;100.00;103183.25;10464776;28;20056;-57
2022/01/28 17:43:02;;;;;;;49.08;27.80;;;;;;;5.71;100.00;103173.69;10464051;28;20420;-56
2022/01/28 17:48:06;;;;;;;41.58;24.45;;;;;;;5.75;100.00;103178.06;10463728;28;20056;-56
2022/01/28 17:53:09;;;;;;;46.00;29.95;;;;;;;5.64;100.00;103165.91;10462617;28;20049;-57
2022/01/28 17:58:11;;;;;;;57.17;33.10;;;;;;;5.64;100.00;103164.16;10464595;28;20128;-57
2022/01/28 18:03:13;;;;;;;54.45;33.20;;;;;;;5.67;100.00;103153.78;10463676;28;20052;-57
2022/01/28 18:08:16;;;;;;;53.80;34.00;;;;;;;5.83;100.00;103146.84;10463508;28;20132;-58
2022/01/28 18:13:18;;;;;;;120.88;69.10;;;;;;;5.71;100.00;103142.50;10484028;28;20045;-58
2022/01/28 18:18:21;;;;;;;44.70;31.40;;;;;;;5.83;100.00;103138.19;10462804;28;20052;-57
2022/01/28 18:23:23;;;;;;;53.33;33.42;;;;;;;5.64;100.00;103138.19;10461880;28;20057;-56
2022/01/28 18:28:25;;;;;;;63.95;39.40;;;;;;;5.45;100.00;103132.09;10463181;28;20053;-59
2022/01/28 18:33:28;;;;;;;54.50;34.67;;;;;;;5.59;100.00;103119.97;10462292;28;20119;-56
2022/01/28 18:38:30;;;;;;;57.15;35.47;;;;;;;5.60;100.00;103115.66;10462145;28;20045;-56
2022/01/28 18:43:35;;;;;;;48.10;31.13;;;;;;;5.72;100.00;103107.00;10460476;28;20049;-56
2022/01/28 18:48:39;;;;;;;57.95;32.72;;;;;;;5.56;100.00;103086.22;10462180;28;20076;-58
2022/01/28 18:53:41;;;;;;;55.85;34.45;;;;;;;5.59;100.00;103080.13;10477398;28;20049;-55
2022/01/28 18:58:44;;;;;;;65.40;37.03;;;;;;;5.35;100.00;103068.88;10461392;28;20053;-58
2022/01/28 19:03:46;;;;;;;64.63;38.30;;;;;;;5.42;100.00;103072.34;10460768;28;20057;-55
2022/01/28 19:08:48;;;;;;;71.75;39.40;;;;;;;5.22;100.00;103083.56;10460552;28;20045;-57
2022/01/28 19:13:51;;;;;;;78.13;44.85;;;;;;;5.14;100.00;103087.00;10461216;28;20059;-58
2022/01/28 19:18:53;;;;;;;82.03;45.45;;;;;;;5.03;100.00;103059.28;10460460;28;20067;-56
2022/01/28 19:23:57;;;;;;;68.53;39.30;;;;;;;5.02;100.00;103083.53;10459855;28;20071;-56
2022/01/28 19:28:59;;;;;;;78.20;42.03;;;;;;;5.08;100.00;103111.25;10460165;28;20045;-56
2022/01/28 19:34:01;;;;;;;82.90;46.58;;;;;;;5.11;100.00;103108.66;10478200;28;20045;-57
2022/01/28 19:39:04;;;;;;;68.78;37.67;;;;;;;5.17;100.00;103106.06;10460138;28;20055;-55
2022/01/28 19:44:07;;;;;;;70.55;37.50;;;;;;;5.09;100.00;103110.38;10459481;28;20049;-56
2022/01/28 19:49:10;;;;;;;82.65;42.97;;;;;;;5.10;100.00;103112.13;10459263;28;20045;-57
2022/01/28 19:54:13;;;;;;;88.05;45.90;;;;;;;4.83;100.00;103111.16;10459523;28;20120;-58
2022/01/28 19:59:16;;;;;;;79.20;43.38;;;;;;;5.05;100.00;103110.38;10457497;28;20505;-58
2022/01/28 20:04:19;;;;;;;92.15;43.70;;;;;;;4.99;100.00;103095.63;10458638;28;20503;-57
2022/01/28 20:09:22;;;;;;;84.95;41.03;;;;;;;5.10;100.00;103072.31;10458429;28;20394;-58
2022/01/28 20:14:25;;;;;;;101.25;46.33;;;;;;;5.11;100.00;103071.41;10480104;28;20045;-58
2022/01/28 20:19:27;;;;;;;89.43;43.35;;;;;;;5.27;100.00;103073.19;10457945;28;20061;-58
2022/01/28 20:24:29;;;;;;;79.65;43.03;;;;;;;5.27;100.00;103059.34;10458081;28;20071;-56
2022/01/28 20:29:32;;;;;;;91.82;45.65;;;;;;;5.12;100.00;103050.66;10457930;28;20068;-55
2022/01/28 20:34:35;;;;;;;80.35;42.55;;;;;;;5.27;100.00;103028.16;10457843;28;20056;-58
2022/01/28 20:39:38;;;;;;;85.50;45.50;;;;;;;5.28;100.00;103032.47;10457818;28;20059;-59
2022/01/28 20:44:41;;;;;;;92.25;47.47;;;;;;;5.24;100.00;103017.78;10457292;28;20044;-57
2022/01/28 20:49:44;;;;;;;87.72;44.63;;;;;;;5.15;100.00;103003.91;10457108;28;20048;-56
2022/01/28 20:54:46;;;;;;;81.93;43.85;;;;;;;5.24;100.00;103007.38;10477565;28;20052;-57
2022/01/28 20:59:48;;;;;;;86.93;43.47;;;;;;;5.39;100.00;103016.03;10456386;28;20059;-57
2022/01/28 21:04:54;;;;;;;68.13;37.50;;;;;;;5.41;100.00;103010.84;10455900;28;20401;-59
2022/01/28 21:09:57;;;;;;;82.10;43.45;;;;;;;5.36;100.00;103012.56;10456366;28;20053;-57
2022/01/28 21:15:00;;;;;;;87.30;44.78;;;;;;;5.30;100.00;103003.06;10456387;28;20413;-58
2022/01/28 21:20:02;;;;;;;82.55;45.80;;;;;;;5.33;100.00;103009.97;10457248;28;20087;-56
2022/01/28 21:25:06;;;;;;;85.95;41.88;;;;;;;5.29;100.00;102997.88;10456229;28;20057;-57
2022/01/28 21:30:09;;;;;;;77.85;43.22;;;;;;;5.29;100.00;102988.31;10455964;28;20045;-56
2022/01/28 21:35:13;;;;;;;83.30;44.63;;;;;;;5.31;100.00;102997.00;10478353;28;20051;-54
2022/01/28 21:40:15;;;;;;;77.57;41.42;;;;;;;5.35;100.00;102974.50;10456019;28;20057;-56
2022/01/28 21:45:17;;;;;;;75.65;39.17;;;;;;;5.43;100.00;102964.97;10455922;28;20056;-57
2022/01/28 21:50:20;;;;;;;91.28;44.40;;;;;;;5.25;100.00;102952.84;10454693;28;20059;-59
2022/01/28 21:55:22;;;;;;;81.15;44.20;;;;;;;5.32;100.00;102964.09;10454591;28;20402;-58
2022/01/28 22:00:25;;;;;;;75.05;42.25;;;;;;;5.31;100.00;102955.44;10455793;28;20056;-57
2022/01/28 22:05:28;;;;;;;72.55;40.67;;;;;;;5.47;100.00;102955.44;10455651;28;20063;-57
2022/01/28 22:10:33;;;;;;;73.28;40.10;;;;;;;5.41;100.00;102938.09;10454978;28;20408;-56
2022/01/28 22:15:35;;;;;;;68.80;40.10;;;;;;;5.41;100.00;102925.09;10477039;28;20489;-56
2022/01/28 22:20:37;;;;;;;67.32;38.08;;;;;;;5.42;100.00;102934.63;10461523;28;20485;-58
2022/01/28 22:25:40;;;;;;;67.68;37.08;;;;;;;5.39;100.00;102922.50;10463004;28;20049;-56
2022/01/28 22:30:42;;;;;;;65.88;37.83;;;;;;;5.43;100.00;102888.72;10462333;28;20067;-57
2022/01/28 22:35:45;;;;;;;65.25;35.25;;;;;;;5.39;100.00;102880.94;10461813;28;20056;-57
2022/01/28 22:40:47;;;;;;;62.17;36.10;;;;;;;5.43;100.00;102873.16;10460745;28;20048;-55
2022/01/28 22:45:49;;;;;;;67.43;37.13;;;;;;;5.30;100.00;102891.38;10462456;28;20052;-59
2022/01/28 22:50:52;;;;;;;64.40;35.72;;;;;;;5.27;100.00;102888.78;10461596;28;20045;-57
2022/01/28 22:55:54;;;;;;;63.10;35.80;;;;;;;5.31;100.00;102882.72;10483222;28;20545;-57
2022/01/28 23:00:56;;;;;;;66.00;36.60;;;;;;;5.21;100.00;102884.47;10461064;28;20516;-58
2022/01/28 23:05:59;;;;;;;79.18;38.42;;;;;;;5.22;100.00;102868.00;10461240;28;20060;-55
2022/01/28 23:11:01;;;;;;;57.08;35.10;;;;;;;5.27;100.00;102870.59;10460906;28;20049;-58
2022/01/28 23:16:04;;;;;;;70.00;37.25;;;;;;;5.20;100.00;102864.53;10460901;28;20124;-57
2022/01/28 23:21:06;;;;;;;62.28;34.85;;;;;;;5.28;100.00;102874.03;10460418;28;20056;-56
2022/01/28 23:26:09;;;;;;;67.32;38.17;;;;;;;5.31;100.00;102864.53;10460324;28;20048;-57
2022/01/28 23:31:13;;;;;;;62.83;35.78;;;;;;;5.28;100.00;102863.66;10474260;28;20100;-55
2022/01/28 23:36:15;;;;;;;67.55;38.13;;;;;;;5.29;100.00;102857.59;10464045;28;20500;-56
2022/01/28 23:41:19;;;;;;;62.72;35.45;;;;;;;5.35;100.00;102840.28;10459274;28;20132;-57
2022/01/28 23:46:22;;;;;;;62.60;37.10;;;;;;;5.34;100.00;102846.31;10459245;28;20056;-58
2022/01/28 23:51:24;;;;;;;73.30;40.10;;;;;;;5.19;100.00;102828.19;10458814;28;20049;-59
2022/01/28 23:56:26;;;;;;;64.40;36.53;;;;;;;5.24;100.00;102830.78;10459016;28;20049;-57
